Latest Conditions
At L.F.Wade Int. Airport
Recorded at 8:55 pm
Partly Cloudy
Temp.: 
18°C/64°F
Humidity: 
64%
Wind: 
NE 10KT
or 12mph
UV Index: 
N/A
Island Observations
Observations
Tuesday, February 28, 2017

Observations are in local time and taken at least once an hour, or upon the start and end of specified events such as showers and thunderstorms.

Time Sky / Weather Wind Speed/Gusts Temp. R.H. Pressure
     knots (mph)  °C (°F)  %  mb / "Hg
 20:55 Partly Cloudy  NE 10/0 (12/0) 18(64) 64 1032 / 30.48
 19:55 Mostly Cloudy  NE 10/0 (12/0) 18(65) 66 1031 / 30.46
 18:55 Mostly Cloudy  NE 10/0 (12/0) 18(65) 65 1031 / 30.45
 17:55 Partly Cloudy  NE 11/0 (13/0) 18(65) 66 1031 / 30.44
 16:55 Mostly Cloudy  NE 11/0 (13/0) 19(67) 62 1030 / 30.42
 15:55 Partly Cloudy  NE 11/0 (13/0) 20(68) 62 1029 / 30.40
 14:55 Few Clouds  ENE 11/0 (13/0) 20(68) 60 1029 / 30.39
 13:55 Few Clouds  ENE 10/0 (12/0) 20(69) 57 1029 / 30.40
 12:55 Few Clouds  ENE 11/0 (13/0) 21(69) 57 1029 / 30.40
 11:55 Few Clouds  NNE 12/0 (14/0) 20(69) 56 1030 / 30.42
 10:55 Few Clouds  NNE 14/0 (16/0) 20(68) 60 1030 / 30.43
 09:55 Partly Cloudy  NNE 13/0 (15/0) 20(67) 63 1030 / 30.41
 08:55 Partly Cloudy  NNE 14/0 (16/0) 19(66) 68 1029 / 30.39
 07:55 Partly Cloudy  NNE 12/0 (14/0) 19(66) 66 1028 / 30.36
 06:55 Few Clouds  NE 12/0 (14/0) 18(65) 65 1027 / 30.33
 05:55 Partly Cloudy  NNE 12/0 (14/0) 19(66) 70 1026 / 30.31
 04:55 Partly Cloudy  NNE 13/0 (15/0) 19(66) 77 1025 / 30.28
 03:55 Mostly Cloudy  NNE 12/0 (14/0) 19(67) 80 1025 / 30.26
 02:55 Mostly Cloudy Showers NNE 11/0 (13/0) 19(67) 84 1024 / 30.25
 02:33 Mostly Cloudy Showers N 10/0 (12/0) 19(67) 90 1024 / 30.24
 02:29 Mostly Cloudy Showers WNW 7/0 (8/0) 19(67) 90 1024 / 30.24
 01:55 Mostly Cloudy  WNW 5/0 (6/0) 19(67) 92 1024 / 30.23
 01:43 Mostly Cloudy  WNW 6/0 (7/0) 19(67) 92 1024 / 30.23
 00:55 Mostly Cloudy  WNW 7/0 (8/0) 20(67) 91 1023 / 30.22
 00:36 Partly Cloudy  WNW 9/0 (10/0) 20(67) 90 1023 / 30.22
 00:12 Mostly Cloudy  W 8/0 (9/0) 20(67) 90 1023 / 30.22
 23:55 Mostly Cloudy  W 9/0 (10/0) 20(67) 89 1023 / 30.22
 23:40 Mostly Cloudy  W 9/0 (10/0) 20(67) 89 1023 / 30.22
 22:55 Mostly Cloudy  W 7/0 (8/0) 20(68) 90 1023 / 30.21
 22:35 Mostly Cloudy  W 7/0 (8/0) 20(68) 90 1023 / 30.21
 21:55 Partly Cloudy  W 8/0 (9/0) 20(67) 90 1023 / 30.20
 20:55 Mostly Cloudy  W 10/0 (12/0) 20(68) 89 1022 / 30.18
 20:24 Mostly Cloudy  W 9/0 (10/0) 20(68) 90 1022 / 30.18
 20:08 Mostly Cloudy  W 8/0 (9/0) 20(68) 90 1022 / 30.17
 19:55 Few Clouds  W 8/0 (9/0) 20(67) 89 1022 / 30.17
 18:55 Few Clouds  W 9/0 (10/0) 20(68) 87 1020 / 30.13
 17:55 Clear  W 12/0 (14/0) 20(69) 85 1020 / 30.11
 16:55 Few Clouds  W 14/0 (16/0) 21(70) 82 1019 / 30.09
 15:55 Few Clouds  W 15/0 (17/0) 22(71) 82 1019 / 30.08
 14:55 Few Clouds  W 16/0 (18/0) 22(72) 79 1018 / 30.07
 13:55 Few Clouds  W 15/0 (17/0) 22(72) 79 1018 / 30.07
 12:55 Few Clouds  W 18/0 (21/0) 23(73) 77 1018 / 30.07
 11:55 Few Clouds  WSW 13/0 (15/0) 23(73) 78 1019 / 30.08
 10:55 Few Clouds  WSW 15/0 (17/0) 22(72) 78 1019 / 30.08
 09:55 Few Clouds  W 15/0 (17/0) 22(71) 82 1019 / 30.08
 08:55 Few Clouds  W 15/0 (17/0) 21(70) 85 1018 / 30.06
 07:55 Few Clouds  WSW 12/0 (14/0) 20(69) 88 1017 / 30.03
 06:55 Few Clouds  SW 12/0 (14/0) 20(68) 90 1016 / 30.01
 06:08 Partly Cloudy  SW 10/0 (12/0) 20(68) 90 1016 / 30.00
 05:55 Mostly Cloudy  SW 10/0 (12/0) 20(69) 90 1016 / 29.99
 04:55 Mostly Cloudy  SW 14/0 (16/0) 21(69) 88 1015 / 29.98
 03:55 Partly Cloudy  SW 12/0 (14/0) 20(69) 89 1015 / 29.96
 03:47 Partly Cloudy  SW 12/0 (14/0) 20(69) 89 1015 / 29.96
 02:55 Mostly Cloudy  SW 13/0 (15/0) 21(69) 90 1015 / 29.96
 01:55 Mostly Cloudy  SSW 11/0 (13/0) 20(69) 90 1014 / 29.95
 00:55 Mostly Cloudy  SSW 12/0 (14/0) 21(69) 91 1014 / 29.95
 23:55 Mostly Cloudy Mist SSW 12/0 (14/0) 21(69) 92 1014 / 29.95
 22:55 Mostly Cloudy Mist SSW 11/0 (13/0) 21(69) 92 1015 / 29.96
 22:10 Mostly Cloudy  SSW 11/0 (13/0) 21(69) 91 1014 / 29.95
 21:55 Mostly Cloudy  SSW 11/0 (13/0) 21(69) 91 1014 / 29.95
 21:16 Mostly Cloudy  SSW 11/0 (13/0) 21(69) 90 1014 / 29.94
 20:55 Mostly Cloudy  SSW 11/0 (13/0) 21(69) 90 1014 / 29.94
 19:55 Mostly Cloudy  SSW 13/0 (15/0) 21(69) 89 1014 / 29.93
 18:55 Mostly Cloudy  SSW 13/0 (15/0) 20(69) 90 1013 / 29.92
 17:55 Mostly Cloudy  SSW 13/0 (15/0) 21(69) 89 1013 / 29.91
 16:55 Mostly Cloudy  SSW 12/0 (14/0) 21(70) 86 1013 / 29.90
 15:55 Mostly Cloudy Showers SSW 17/0 (20/0) 21(69) 86 1012 / 29.89
 15:25 Mostly Cloudy Showers S 20/31 (23/36) 21(69) 89 1012 / 29.87
 14:55 Overcast Showers SW 9/0 (10/0) 18(64) 90 1012 / 29.88
 14:41 Overcast Thunderstorm SSW 9/0 (10/0) 18(65) 89 1012 / 29.89
 14:13 Overcast Thunderstorm SSW 16/0 (18/0) 18(65) 88 1013 / 29.90
 13:55 Overcast Thunderstorm S 18/0 (21/0) 20(68) 85 1013 / 29.91
 13:41 Overcast Thunderstorm S 20/32 (23/37) 20(67) 84 1012 / 29.89
 13:30 Overcast Thunderstorm S 20/36 (23/41) 21(70) 89 1013 / 29.91
 13:12 Overcast Showers S 18/0 (21/0) 21(71) 87 1013 / 29.91
 12:55 Overcast Showers S 13/0 (15/0) 20(68) 89 1013 / 29.92
 12:40 Overcast Showers S 13/0 (15/0) 19(65) 89 1013 / 29.92
 12:24 Overcast Showers SSW 15/0 (17/0) 18(64) 91 1013 / 29.92
 12:13 Overcast Showers SSW 22/0 (25/0) 18(64) 89 1014 / 29.93
 12:00 Overcast Showers S 23/41 (26/47) 20(68) 83 1014 / 29.94
 11:55 Mostly Cloudy Showers S 21/0 (24/0) 21(70) 88 1014 / 29.93
 11:42 Mostly Cloudy Showers S 21/0 (24/0) 21(70) 88 1013 / 29.92
 11:32 Mostly Cloudy Showers S 22/0 (25/0) 21(71) 88 1014 / 29.93
 11:23 Mostly Cloudy Showers SSE 20/0 (23/0) 21(70) 88 1013 / 29.92
 11:03 Mostly Cloudy Showers S 21/0 (24/0) 22(71) 87 1013 / 29.92
 10:55 Mostly Cloudy Showers S 20/0 (23/0) 21(70) 88 1013 / 29.92
 10:39 Overcast Showers S 19/0 (22/0) 21(70) 88 1014 / 29.93
 10:03 Mostly Cloudy Showers SSE 26/0 (30/0) 21(70) 88 1013 / 29.92
 09:55 Mostly Cloudy Showers SSE 24/35 (28/40) 20(69) 90 1013 / 29.91
 09:40 Overcast Showers SSE 23/0 (26/0) 21(69) 88 1014 / 29.94
 09:13 Mostly Cloudy Showers SSE 22/0 (25/0) 20(69) 90 1014 / 29.93
 09:02 Overcast Showers SSE 22/0 (25/0) 20(69) 89 1014 / 29.94
 08:55 Overcast Showers SSE 22/0 (25/0) 20(69) 88 1014 / 29.94
 08:30 Overcast Showers SSE 22/0 (25/0) 21(69) 87 1014 / 29.94
 08:10 Overcast Showers SSE 21/0 (24/0) 21(69) 87 1014 / 29.94
 07:55 Overcast Showers SSE 21/0 (24/0) 21(69) 87 1014 / 29.94
 07:35 Overcast Showers SSE 25/0 (29/0) 21(69) 87 1014 / 29.93
 07:14 Mostly Cloudy Showers SSE 22/0 (25/0) 20(69) 87 1013 / 29.92
 06:55 Overcast Showers SSE 23/0 (26/0) 20(68) 89 1013 / 29.91
 06:33 Overcast Showers SE 24/0 (28/0) 20(68) 89 1013 / 29.91
Observations from our AWOS sites are available here (password and username are both 'guest').